Terminal Aerodrome Forecast
Issued by NWS Sterling, VA

Current Version | Previous Version | Text Only | Print | Product List | Glossary On
Versions: 1 2 3 4 5 6 7 8 9 10 11 12
000
FTUS41 KLWX 242320
TAFMRB
TAF
KMRB 242320Z 2500/2524 30005KT P6SM FEW200
     FM250200 VRB04KT P6SM FEW200
     FM251500 28005KT P6SM FEW050
     FM252000 20004KT P6SM FEW130=

USA.gov is the U.S. government's official web portal to all federal, state and local government web resources and services.